Time;durP1;ratioP1;P1;durP2;ratioP2;P2;SDS_P1;SDS_P2;PMS_P1;PMS_P2;Temp;Humidity;BMP_temperature;BMP_pressure;BME280_temperature;BME280_humidity;BME280_pressure;Samples;Min_cycle;Max_cycle;Signal;HPM_P1;HPM_P2
2023/03/01 00:01:39;;;;;;;23.60;15.20;;;-2.50;99.90;;;;;;4998109;28;20724;-81
2023/03/01 00:04:07;;;;;;;20.83;13.63;;;-2.40;99.90;;;;;;5007429;28;20213;-81
2023/03/01 00:06:33;;;;;;;20.97;13.83;;;-2.40;99.90;;;;;;4996222;28;20220;-82
2023/03/01 00:09:00;;;;;;;19.50;12.73;;;-2.40;99.90;;;;;;4997714;28;20720;-80
2023/03/01 00:11:29;;;;;;;17.27;12.37;;;-2.60;99.90;;;;;;4990294;28;20216;-81
2023/03/01 00:13:57;;;;;;;20.20;13.40;;;-2.50;99.90;;;;;;4989963;28;20212;-82
2023/03/01 00:16:27;;;;;;;22.10;13.07;;;-2.70;99.90;;;;;;4990414;28;20213;-81
2023/03/01 00:18:55;;;;;;;20.87;13.53;;;-2.80;99.90;;;;;;4998627;28;20651;-82
2023/03/01 00:21:22;;;;;;;20.83;12.73;;;-2.90;99.90;;;;;;4990350;28;20243;-83
2023/03/01 00:23:50;;;;;;;20.13;12.93;;;-2.90;99.90;;;;;;4998632;28;20214;-82
2023/03/01 00:26:18;;;;;;;19.57;12.70;;;-2.70;99.90;;;;;;4995192;28;20205;-82
2023/03/01 00:28:46;;;;;;;19.57;11.90;;;-2.70;99.90;;;;;;4990285;28;20832;-83
2023/03/01 00:31:15;;;;;;;20.47;12.50;;;-2.80;99.90;;;;;;4994546;28;20223;-82
2023/03/01 00:33:43;;;;;;;18.00;11.13;;;-2.80;99.90;;;;;;4998203;28;20690;-82
2023/03/01 00:36:13;;;;;;;19.60;11.90;;;-2.90;99.90;;;;;;4989046;28;20201;-81
2023/03/01 00:38:41;;;;;;;24.33;11.67;;;-3.00;99.90;;;;;;4996363;28;20231;-82
2023/03/01 00:41:11;;;;;;;16.77;10.47;;;-3.20;99.90;;;;;;5007815;28;20212;-81
2023/03/01 00:43:38;;;;;;;19.13;11.60;;;-3.40;99.90;;;;;;4998975;28;20209;-82
2023/03/01 00:46:08;;;;;;;19.30;12.10;;;-3.30;99.90;;;;;;5003181;28;20223;-81
2023/03/01 00:48:35;;;;;;;17.50;11.43;;;-3.30;99.90;;;;;;5004947;28;20224;-82
2023/03/01 00:51:07;;;;;;;18.63;11.33;;;-3.10;99.90;;;;;;4995677;28;20225;-82
2023/03/01 00:53:34;;;;;;;20.13;12.10;;;-3.00;99.90;;;;;;4997329;28;20733;-82
2023/03/01 00:56:01;;;;;;;20.87;12.37;;;-3.10;99.90;;;;;;4992762;28;20281;-82
2023/03/01 00:58:28;;;;;;;17.83;10.97;;;-3.00;99.90;;;;;;4987808;28;20235;-81
2023/03/01 01:00:55;;;;;;;16.43;10.83;;;-3.10;99.90;;;;;;4994889;28;20205;-82
2023/03/01 01:03:24;;;;;;;17.03;11.33;;;-3.30;99.90;;;;;;4995552;28;20207;-82
2023/03/01 01:05:51;;;;;;;17.97;11.33;;;-3.60;99.90;;;;;;5003139;28;20212;-80
2023/03/01 01:08:19;;;;;;;19.13;10.80;;;-3.80;99.90;;;;;;4996137;28;20223;-82
2023/03/01 01:10:47;;;;;;;18.60;11.70;;;-3.80;99.90;;;;;;4969884;28;20231;-82
2023/03/01 01:13:14;;;;;;;15.83;10.77;;;-3.90;99.90;;;;;;4989141;28;20230;-81
2023/03/01 01:15:42;;;;;;;19.10;11.70;;;-3.90;99.90;;;;;;4990461;28;20239;-82
2023/03/01 01:18:08;;;;;;;18.87;12.17;;;-3.80;99.90;;;;;;4988450;28;20220;-82
2023/03/01 01:20:37;;;;;;;18.97;12.00;;;-3.80;99.90;;;;;;4989783;28;20209;-81
2023/03/01 01:23:06;;;;;;;18.53;11.67;;;-3.80;99.90;;;;;;4992516;28;20216;-83
2023/03/01 01:25:36;;;;;;;16.80;10.73;;;-3.80;99.90;;;;;;4999200;28;20214;-80
2023/03/01 01:28:04;;;;;;;18.13;11.90;;;-3.70;99.90;;;;;;4985592;28;20220;-81
2023/03/01 01:30:31;;;;;;;18.13;11.33;;;-3.70;99.90;;;;;;5006052;28;20211;-82
2023/03/01 01:32:57;;;;;;;19.33;12.00;;;-3.50;99.90;;;;;;4995154;28;20233;-82
2023/03/01 01:35:24;;;;;;;18.63;12.23;;;-3.40;99.90;;;;;;4989783;28;20208;-81
2023/03/01 01:37:51;;;;;;;18.00;11.37;;;-3.40;99.90;;;;;;5002190;28;20789;-82
2023/03/01 01:40:18;;;;;;;17.87;11.57;;;-3.60;99.90;;;;;;4992910;28;20210;-82
2023/03/01 01:42:46;;;;;;;18.80;11.30;;;-3.60;99.90;;;;;;4997050;28;20215;-81
2023/03/01 01:45:32;;;;;;;19.93;11.87;;;-3.60;99.90;;;;;;5002077;28;20768;-82
2023/03/01 01:48:04;;;;;;;18.93;11.53;;;-3.40;99.90;;;;;;5002946;28;20228;-81
2023/03/01 01:50:37;;;;;;;17.77;11.73;;;-3.40;99.90;;;;;;4997216;28;20650;-83
2023/03/01 01:53:12;;;;;;;16.90;11.00;;;-3.70;99.90;;;;;;4989385;28;20238;-82
2023/03/01 01:55:43;;;;;;;18.17;11.00;;;-3.90;99.90;;;;;;4984567;28;20220;-81
2023/03/01 01:58:14;;;;;;;19.03;10.77;;;-4.00;99.90;;;;;;4983300;28;20595;-83
2023/03/01 02:00:41;;;;;;;18.20;10.97;;;-4.10;99.90;;;;;;4999832;28;20206;-81
2023/03/01 02:03:13;;;;;;;18.20;11.37;;;-4.20;99.90;;;;;;4994662;28;20197;-82
2023/03/01 02:05:51;;;;;;;18.43;12.10;;;-4.10;99.90;;;;;;4994999;28;20201;-82
2023/03/01 02:08:21;;;;;;;19.53;11.77;;;-4.10;99.90;;;;;;4985753;28;20235;-82
2023/03/01 02:10:50;;;;;;;18.57;10.87;;;-4.10;99.90;;;;;;4994145;28;20579;-82
2023/03/01 02:13:18;;;;;;;17.03;11.17;;;-4.00;99.90;;;;;;4991407;28;20766;-80
2023/03/01 02:15:45;;;;;;;18.13;10.87;;;-4.00;99.90;;;;;;5004848;28;20207;-81
2023/03/01 02:18:18;;;;;;;17.53;11.53;;;-4.10;99.90;;;;;;4986424;28;20231;-82
2023/03/01 02:20:54;;;;;;;16.67;10.23;;;-4.00;99.90;;;;;;5002028;28;20208;-82
2023/03/01 02:23:21;;;;;;;18.27;11.30;;;-4.10;99.90;;;;;;4998083;28;20582;-81
2023/03/01 02:25:57;;;;;;;18.70;11.20;;;-3.90;99.90;;;;;;4990373;28;20209;-81
2023/03/01 02:28:31;;;;;;;18.77;11.03;;;-3.90;99.90;;;;;;4993118;28;20224;-82
2023/03/01 02:33:43;;;;;;;18.37;11.40;;;-4.20;99.90;;;;;;4993924;28;20295;-82
2023/03/01 02:36:14;;;;;;;18.23;10.97;;;-4.30;99.90;;;;;;4998086;28;20210;-82
2023/03/01 02:38:42;;;;;;;17.93;10.97;;;-4.10;99.90;;;;;;4986378;28;20230;-82
2023/03/01 02:41:12;;;;;;;18.37;10.90;;;-4.00;99.90;;;;;;4996199;28;20205;-81
2023/03/01 02:43:40;;;;;;;18.60;10.03;;;-4.10;99.90;;;;;;4987754;28;20193;-81
2023/03/01 02:46:09;;;;;;;16.37;10.60;;;-4.40;99.90;;;;;;4994056;28;20204;-81
2023/03/01 02:48:44;;;;;;;17.50;11.53;;;-4.50;99.90;;;;;;5001075;28;20598;-80
2023/03/01 02:51:23;;;;;;;18.87;11.17;;;-4.30;99.90;;;;;;4991248;28;20220;-80
2023/03/01 02:54:00;;;;;;;20.23;11.47;;;-4.20;99.90;;;;;;5002430;28;20215;-81
2023/03/01 02:56:27;;;;;;;16.43;10.57;;;-4.20;99.90;;;;;;4981107;28;20205;-81
2023/03/01 02:59:00;;;;;;;18.17;10.77;;;-4.40;99.90;;;;;;4981282;28;20225;-81
2023/03/01 03:01:36;;;;;;;17.60;11.17;;;-4.30;99.90;;;;;;4989186;28;20217;-82
2023/03/01 03:04:03;;;;;;;16.57;10.97;;;-4.30;99.90;;;;;;4984927;28;20280;-82
2023/03/01 03:06:30;;;;;;;16.13;10.77;;;-4.30;99.90;;;;;;4994755;28;20201;-81
2023/03/01 03:08:57;;;;;;;17.87;11.30;;;-4.40;99.90;;;;;;4985649;28;20235;-81
2023/03/01 03:11:24;;;;;;;16.40;10.87;;;-4.40;99.90;;;;;;5000927;28;20216;-81
2023/03/01 03:13:51;;;;;;;16.97;10.93;;;-4.50;99.90;;;;;;4977825;28;20226;-80
2023/03/01 03:16:20;;;;;;;17.43;10.83;;;-4.50;99.90;;;;;;4995404;28;21170;-81
2023/03/01 03:18:47;;;;;;;16.60;10.77;;;-4.40;99.90;;;;;;4991727;28;20224;-81
2023/03/01 03:21:14;;;;;;;17.47;10.57;;;-4.30;99.90;;;;;;4978667;28;20214;-81
2023/03/01 03:23:41;;;;;;;17.93;10.60;;;-4.40;99.90;;;;;;5004235;28;20208;-82
2023/03/01 03:26:08;;;;;;;19.23;11.80;;;-4.50;99.90;;;;;;4989955;28;20205;-82
2023/03/01 03:28:39;;;;;;;18.13;11.70;;;-4.20;99.90;;;;;;5005693;28;20224;-84
2023/03/01 03:31:07;;;;;;;22.50;13.03;;;-4.20;99.90;;;;;;4997940;28;20228;-81
2023/03/01 03:33:35;;;;;;;20.00;13.13;;;-4.40;99.90;;;;;;4998611;28;20213;-82
2023/03/01 03:36:02;;;;;;;17.70;10.63;;;-4.30;99.90;;;;;;4989754;28;20212;-81
2023/03/01 03:38:29;;;;;;;18.73;10.77;;;-4.20;99.90;;;;;;4988369;28;20225;-81
2023/03/01 03:41:02;;;;;;;18.63;12.20;;;-4.10;99.90;;;;;;5007137;28;20204;-80
2023/03/01 03:43:29;;;;;;;20.13;12.17;;;-4.10;99.90;;;;;;4995337;28;20578;-81
2023/03/01 03:45:57;;;;;;;19.50;11.63;;;-4.10;99.90;;;;;;5000559;28;20559;-79
2023/03/01 03:48:25;;;;;;;18.73;11.70;;;-4.10;99.90;;;;;;5004905;28;20216;-81
2023/03/01 03:50:55;;;;;;;17.07;10.73;;;-4.10;99.90;;;;;;4990721;28;20213;-82
2023/03/01 03:53:24;;;;;;;17.23;10.80;;;-4.20;99.90;;;;;;5001872;28;20242;-79
2023/03/01 03:55:51;;;;;;;17.90;10.70;;;-4.10;99.90;;;;;;4987525;28;20202;-80
2023/03/01 03:58:20;;;;;;;18.07;10.27;;;-4.10;99.90;;;;;;4999334;28;20209;-81
2023/03/01 04:00:49;;;;;;;17.17;10.40;;;-4.10;99.90;;;;;;4995078;28;20212;-80
2023/03/01 04:03:18;;;;;;;18.33;11.33;;;-4.10;99.90;;;;;;4991040;28;20300;-81
2023/03/01 04:05:46;;;;;;;17.30;10.33;;;-4.20;99.90;;;;;;4991845;28;20211;-80
2023/03/01 04:08:15;;;;;;;18.67;10.13;;;-4.30;99.90;;;;;;5005833;28;20252;-80
2023/03/01 04:10:43;;;;;;;19.23;10.07;;;-4.40;99.90;;;;;;5003330;28;20220;-80
2023/03/01 04:13:12;;;;;;;18.80;10.70;;;-4.70;99.90;;;;;;5007436;28;20234;-80
2023/03/01 04:15:40;;;;;;;16.50;10.93;;;-4.50;99.90;;;;;;4994438;28;20213;-80
2023/03/01 04:18:07;;;;;;;19.33;11.00;;;-4.60;99.90;;;;;;4989826;28;20221;-78
2023/03/01 04:20:36;;;;;;;17.43;9.87;;;-4.80;99.90;;;;;;4991862;28;20223;-81
2023/03/01 04:23:10;;;;;;;19.07;11.13;;;-5.00;99.90;;;;;;4981807;28;20215;-79
2023/03/01 04:25:39;;;;;;;16.83;10.33;;;-5.00;99.90;;;;;;4994560;28;20641;-83
2023/03/01 04:28:07;;;;;;;17.73;10.67;;;-4.80;99.90;;;;;;5002191;28;20247;-85
2023/03/01 04:30:35;;;;;;;18.67;10.90;;;-5.00;99.90;;;;;;4999273;28;20221;-82
2023/03/01 04:33:03;;;;;;;16.67;10.73;;;-5.00;99.90;;;;;;4993886;28;20262;-81
2023/03/01 04:35:30;;;;;;;18.03;10.83;;;-4.90;99.90;;;;;;4999370;28;20259;-85
2023/03/01 04:37:57;;;;;;;18.70;11.47;;;-4.90;99.90;;;;;;5006340;28;20241;-83
2023/03/01 04:40:24;;;;;;;20.60;12.23;;;-4.80;99.90;;;;;;4992768;28;20223;-88
2023/03/01 04:42:53;;;;;;;16.93;10.93;;;-4.70;99.90;;;;;;5003026;28;20201;-88
2023/03/01 04:45:19;;;;;;;19.47;11.47;;;-4.70;99.90;;;;;;5001120;28;20792;-82
2023/03/01 04:47:47;;;;;;;19.67;11.10;;;-4.60;99.90;;;;;;5001578;28;20229;-81
2023/03/01 04:50:15;;;;;;;19.63;12.03;;;-4.50;99.90;;;;;;4992136;28;20220;-88
2023/03/01 04:52:42;;;;;;;16.57;10.73;;;-4.60;99.90;;;;;;4980150;28;20244;-82
2023/03/01 04:55:10;;;;;;;17.90;10.97;;;-4.90;99.90;;;;;;4993416;28;20220;-86
2023/03/01 04:57:37;;;;;;;17.90;11.13;;;-4.90;99.90;;;;;;5005084;28;20217;-89
2023/03/01 05:00:19;;;;;;;17.47;10.13;;;-4.80;99.90;;;;;;4996183;28;20704;-83
2023/03/01 05:02:48;;;;;;;18.77;11.87;;;-4.90;99.90;;;;;;5006309;28;20210;-81
2023/03/01 05:05:15;;;;;;;20.13;11.67;;;-4.90;99.90;;;;;;4998437;28;20213;-82
2023/03/01 05:07:42;;;;;;;21.27;11.53;;;-4.90;99.90;;;;;;5010768;28;20242;-86
2023/03/01 05:10:10;;;;;;;18.97;11.40;;;-5.00;99.90;;;;;;4990710;28;20221;-84
2023/03/01 05:12:38;;;;;;;17.33;11.00;;;-5.00;99.90;;;;;;4999803;28;20228;-85
2023/03/01 05:15:07;;;;;;;18.77;11.60;;;-5.10;99.90;;;;;;5015263;28;20208;-86
2023/03/01 05:17:35;;;;;;;19.93;11.77;;;-5.10;99.90;;;;;;5004897;28;20220;-88
2023/03/01 05:20:05;;;;;;;20.00;11.23;;;-5.10;99.90;;;;;;5014441;28;20802;-84
2023/03/01 05:22:32;;;;;;;19.77;11.60;;;-5.30;99.90;;;;;;4998992;28;20206;-82
2023/03/01 05:24:59;;;;;;;19.20;11.13;;;-5.30;99.90;;;;;;4996805;28;20213;-88
2023/03/01 05:27:25;;;;;;;21.90;11.80;;;-5.10;99.90;;;;;;4996127;28;20223;-82
2023/03/01 05:29:52;;;;;;;21.03;12.50;;;-4.90;99.90;;;;;;5011156;28;20222;-82
2023/03/01 05:32:20;;;;;;;21.00;12.20;;;-4.90;99.90;;;;;;4993028;28;20205;-87
2023/03/01 05:34:47;;;;;;;18.60;12.33;;;-4.80;99.90;;;;;;4998208;28;20216;-85
2023/03/01 05:37:14;;;;;;;22.73;13.43;;;-4.80;99.90;;;;;;4994072;28;20217;-83
2023/03/01 05:39:41;;;;;;;21.47;13.37;;;-4.70;99.90;;;;;;4996037;28;20373;-88
2023/03/01 05:42:11;;;;;;;21.73;12.87;;;-4.70;99.90;;;;;;4991903;28;20201;-83
2023/03/01 05:44:40;;;;;;;20.77;12.70;;;-4.80;99.90;;;;;;4996218;28;20224;-87
2023/03/01 05:47:07;;;;;;;21.47;12.63;;;-4.80;99.90;;;;;;4999613;28;20696;-83
2023/03/01 05:49:35;;;;;;;21.87;13.07;;;-4.60;99.90;;;;;;5007558;28;20265;-83
2023/03/01 05:52:02;;;;;;;20.10;12.97;;;-4.70;99.90;;;;;;4995223;28;20212;-85
2023/03/01 05:54:28;;;;;;;19.27;12.37;;;-4.70;99.90;;;;;;4997085;28;20217;-84
2023/03/01 05:56:56;;;;;;;23.47;13.10;;;-4.70;99.90;;;;;;5000801;28;20343;-84
2023/03/01 05:59:22;;;;;;;19.47;12.47;;;-4.70;99.90;;;;;;5006632;28;20216;-85
2023/03/01 06:01:49;;;;;;;23.40;13.00;;;-4.80;99.90;;;;;;4990423;28;20488;-83
2023/03/01 06:04:17;;;;;;;21.03;12.23;;;-4.80;99.90;;;;;;5008381;28;20196;-83
2023/03/01 06:06:45;;;;;;;20.90;12.13;;;-4.80;99.90;;;;;;4994519;28;20236;-88
2023/03/01 06:09:12;;;;;;;20.83;12.53;;;-4.90;99.90;;;;;;5008749;28;20659;-81
2023/03/01 06:11:39;;;;;;;23.17;13.43;;;-4.90;99.90;;;;;;4995808;28;20567;-85
2023/03/01 06:14:10;;;;;;;21.43;13.40;;;-4.90;99.90;;;;;;4995436;28;20312;-86
2023/03/01 06:16:37;;;;;;;21.00;12.07;;;-4.90;99.90;;;;;;4994292;28;20201;-84
2023/03/01 06:19:03;;;;;;;19.00;12.37;;;-5.10;99.90;;;;;;4988159;28;20233;-86
2023/03/01 06:21:30;;;;;;;19.60;11.97;;;-5.20;99.90;;;;;;4994350;28;20636;-87
2023/03/01 06:23:58;;;;;;;20.83;12.07;;;-5.10;99.90;;;;;;4994705;28;20231;-81
2023/03/01 06:26:25;;;;;;;20.20;11.47;;;-5.00;99.90;;;;;;4995057;28;20304;-83
2023/03/01 06:28:52;;;;;;;20.93;11.43;;;-5.10;99.90;;;;;;4997195;28;20641;-87
2023/03/01 06:31:19;;;;;;;18.30;11.47;;;-5.30;99.90;;;;;;4992452;28;20277;-87
2023/03/01 06:33:45;;;;;;;20.53;11.80;;;-5.20;99.90;;;;;;4990223;28;20249;-89
2023/03/01 06:36:12;;;;;;;19.17;11.67;;;-5.20;99.90;;;;;;4996210;28;20216;-88
2023/03/01 06:38:40;;;;;;;19.57;11.83;;;-5.00;99.90;;;;;;4995091;28;20231;-83
2023/03/01 06:41:08;;;;;;;21.40;12.03;;;-5.00;99.90;;;;;;5004019;28;20212;-89
2023/03/01 06:43:35;;;;;;;19.60;11.93;;;-5.10;99.90;;;;;;5003113;28;20299;-85
2023/03/01 06:46:05;;;;;;;20.30;12.47;;;-5.10;99.90;;;;;;5010554;28;20481;-84
2023/03/01 06:48:32;;;;;;;20.50;11.43;;;-4.80;99.90;;;;;;5002160;28;20244;-89
2023/03/01 06:51:00;;;;;;;18.53;11.97;;;-4.60;99.90;;;;;;5004160;28;20208;-82
2023/03/01 06:53:27;;;;;;;20.33;12.63;;;-4.60;99.90;;;;;;5000626;28;20219;-83
2023/03/01 06:55:55;;;;;;;19.60;12.87;;;-4.40;99.90;;;;;;5005651;28;20244;-88
2023/03/01 06:58:24;;;;;;;22.13;11.67;;;-4.50;99.90;;;;;;4993489;28;20303;-87
2023/03/01 07:00:50;;;;;;;23.30;12.60;;;-4.60;99.90;;;;;;4990193;28;20679;-86
2023/03/01 07:03:17;;;;;;;24.87;12.60;;;-4.40;99.90;;;;;;4994566;28;20215;-88
2023/03/01 07:05:45;;;;;;;21.37;11.77;;;-4.30;99.90;;;;;;4995174;28;20277;-85
2023/03/01 07:08:12;;;;;;;22.57;11.93;;;-4.40;99.90;;;;;;4995231;28;20220;-81
2023/03/01 07:10:38;;;;;;;21.17;12.50;;;-4.30;99.90;;;;;;4986630;28;20244;-85
2023/03/01 07:13:06;;;;;;;18.67;11.00;;;-4.30;99.90;;;;;;5011830;28;20232;-86
2023/03/01 07:15:34;;;;;;;19.27;11.17;;;-4.40;99.90;;;;;;5006638;28;20660;-87
2023/03/01 07:18:01;;;;;;;20.97;11.97;;;-3.90;99.90;;;;;;4988134;28;20228;-85
2023/03/01 07:20:28;;;;;;;22.23;11.93;;;-3.50;99.90;;;;;;5004669;28;20214;-83
2023/03/01 07:22:56;;;;;;;18.50;11.50;;;-3.30;99.90;;;;;;4998761;28;20584;-88
2023/03/01 07:25:23;;;;;;;20.60;11.63;;;-3.20;99.90;;;;;;5002363;28;20267;-82
2023/03/01 07:27:52;;;;;;;19.43;10.83;;;-2.70;99.90;;;;;;4994970;28;20275;-85
2023/03/01 07:30:19;;;;;;;23.40;13.20;;;-2.70;99.90;;;;;;4982745;28;20245;-88
2023/03/01 07:32:47;;;;;;;24.30;12.20;;;-2.70;99.90;;;;;;4989630;28;20626;-86
2023/03/01 07:35:14;;;;;;;26.10;12.00;;;-2.70;99.90;;;;;;4995466;28;20275;-84
2023/03/01 07:37:41;;;;;;;22.77;12.50;;;-2.40;99.90;;;;;;5002870;28;20692;-88
2023/03/01 07:40:09;;;;;;;22.40;11.57;;;-2.20;99.90;;;;;;5009378;28;20226;-86
2023/03/01 07:42:36;;;;;;;20.60;12.30;;;-1.70;99.90;;;;;;4989293;28;20559;-86
2023/03/01 07:45:03;;;;;;;21.27;11.70;;;-0.30;99.90;;;;;;4987643;28;20858;-86
2023/03/01 07:47:30;;;;;;;19.90;10.07;;;1.80;99.90;;;;;;4998656;28;20240;-85
2023/03/01 07:49:58;;;;;;;18.10;9.93;;;3.40;99.90;;;;;;4993701;28;20585;-84
2023/03/01 07:52:25;;;;;;;17.53;9.87;;;2.90;99.90;;;;;;4995473;28;20284;-86
2023/03/01 07:54:52;;;;;;;17.17;10.07;;;1.30;99.90;;;;;;4994649;28;20243;-84
2023/03/01 07:57:19;;;;;;;17.67;9.47;;;0.20;99.90;;;;;;4989091;28;20237;-87
2023/03/01 07:59:46;;;;;;;16.57;9.63;;;-0.40;99.90;;;;;;4993476;28;20288;-86
2023/03/01 08:02:12;;;;;;;18.97;10.63;;;-0.10;99.90;;;;;;5004133;28;20296;-83
2023/03/01 08:04:39;;;;;;;20.60;10.13;;;0.40;99.90;;;;;;5005814;28;20672;-87
2023/03/01 08:07:07;;;;;;;17.53;10.43;;;0.30;99.90;;;;;;5012244;28;20232;-82
2023/03/01 08:09:36;;;;;;;19.87;11.03;;;1.10;99.90;;;;;;5020903;28;20197;-83
2023/03/01 08:12:04;;;;;;;17.30;10.07;;;2.10;99.90;;;;;;5002826;28;20197;-82
2023/03/01 08:14:31;;;;;;;16.47;10.57;;;2.30;99.90;;;;;;4990760;28;20814;-85
2023/03/01 08:16:58;;;;;;;18.73;11.20;;;1.50;99.90;;;;;;5008525;28;20781;-87
2023/03/01 08:19:25;;;;;;;21.10;10.90;;;1.60;99.90;;;;;;5019220;28;20203;-84
2023/03/01 08:21:51;;;;;;;16.13;9.90;;;2.10;99.90;;;;;;5017152;28;20271;-83
2023/03/01 08:24:19;;;;;;;16.77;11.20;;;3.20;99.90;;;;;;5010945;28;20562;-86
2023/03/01 08:26:46;;;;;;;18.10;11.20;;;3.50;99.90;;;;;;5023671;28;20204;-84
2023/03/01 08:29:13;;;;;;;18.20;11.90;;;4.00;99.90;;;;;;5023353;28;20551;-85
2023/03/01 08:31:41;;;;;;;17.07;11.17;;;3.10;99.90;;;;;;5023785;28;20201;-85
2023/03/01 08:34:10;;;;;;;21.13;12.20;;;2.30;99.90;;;;;;5022711;28;20209;-84
2023/03/01 08:36:39;;;;;;;22.33;12.47;;;3.10;99.90;;;;;;5021978;28;20566;-85
2023/03/01 08:39:07;;;;;;;18.40;11.50;;;3.20;99.90;;;;;;5022469;28;20215;-83
2023/03/01 08:41:36;;;;;;;19.47;12.17;;;4.50;99.90;;;;;;5014575;28;20568;-83
2023/03/01 08:44:02;;;;;;;20.37;12.00;;;3.80;99.90;;;;;;5023338;28;20197;-83
2023/03/01 08:46:31;;;;;;;18.80;11.90;;;3.20;99.90;;;;;;5019555;28;20253;-84
2023/03/01 08:48:58;;;;;;;21.03;12.40;;;2.50;99.90;;;;;;5011283;28;20221;-83
2023/03/01 08:51:26;;;;;;;21.90;12.90;;;2.20;99.90;;;;;;5022329;28;20291;-83
2023/03/01 08:53:53;;;;;;;24.27;13.10;;;2.50;99.90;;;;;;5004484;28;20225;-83
2023/03/01 08:56:20;;;;;;;22.23;12.07;;;2.20;99.90;;;;;;5007956;28;20196;-85
2023/03/01 08:58:49;;;;;;;21.40;12.97;;;2.10;99.90;;;;;;5007541;28;21460;-82
2023/03/01 09:01:18;;;;;;;19.90;13.03;;;1.80;99.90;;;;;;5004107;28;20197;-84
2023/03/01 09:03:46;;;;;;;21.13;11.83;;;1.70;99.90;;;;;;5004756;28;20575;-82
2023/03/01 09:06:13;;;;;;;25.57;13.07;;;1.20;99.90;;;;;;5005158;28;20211;-83
2023/03/01 09:08:42;;;;;;;23.33;12.73;;;1.00;99.90;;;;;;5023291;28;20304;-84
2023/03/01 09:11:11;;;;;;;22.47;12.10;;;1.10;99.90;;;;;;5023422;28;20671;-83
2023/03/01 09:13:38;;;;;;;23.73;12.17;;;1.30;99.90;;;;;;5007342;28;20212;-86
2023/03/01 09:16:08;;;;;;;24.03;12.37;;;1.50;99.90;;;;;;5006136;28;20197;-85
2023/03/01 09:18:35;;;;;;;26.83;12.70;;;1.50;99.90;;;;;;5003852;28;20301;-86
2023/03/01 09:21:07;;;;;;;26.20;13.13;;;1.60;99.90;;;;;;5014001;28;20276;-86
2023/03/01 09:23:34;;;;;;;27.27;14.00;;;1.90;99.90;;;;;;5021414;28;20209;-87
2023/03/01 09:26:01;;;;;;;25.63;13.43;;;2.10;99.90;;;;;;5005055;28;20679;-83
2023/03/01 09:28:27;;;;;;;25.23;12.77;;;2.50;99.90;;;;;;5008313;28;20224;-85
2023/03/01 09:30:54;;;;;;;25.30;11.90;;;2.60;99.90;;;;;;5001185;28;20197;-84
2023/03/01 09:33:22;;;;;;;25.00;13.33;;;2.90;99.90;;;;;;5003884;28;20208;-84
2023/03/01 09:35:49;;;;;;;21.33;10.87;;;3.10;99.90;;;;;;5000277;28;20229;-82
2023/03/01 09:38:16;;;;;;;14.43;8.40;;;3.20;99.90;;;;;;5015972;28;20283;-82
2023/03/01 09:40:45;;;;;;;16.23;9.00;;;3.20;99.90;;;;;;5011849;28;20580;-83
2023/03/01 09:43:19;;;;;;;19.07;10.30;;;3.00;99.90;;;;;;5016317;28;20200;-82
2023/03/01 09:45:49;;;;;;;20.93;10.73;;;3.00;99.90;;;;;;5012256;28;20755;-82
2023/03/01 09:48:21;;;;;;;16.83;9.90;;;3.40;99.90;;;;;;5013250;28;20822;-82
2023/03/01 09:50:50;;;;;;;22.93;10.17;;;3.30;99.90;;;;;;5019805;28;20223;-82
2023/03/01 09:53:19;;;;;;;18.37;10.37;;;3.30;99.90;;;;;;5001747;28;20580;-83
2023/03/01 09:55:52;;;;;;;18.77;10.60;;;3.40;99.90;;;;;;5009794;28;20638;-83
2023/03/01 09:58:41;;;;;;;17.83;9.90;;;3.40;99.90;;;;;;5021025;28;20688;-84
2023/03/01 10:01:24;;;;;;;20.20;9.40;;;3.60;99.90;;;;;;4998094;28;20201;-83
2023/03/01 10:04:07;;;;;;;15.97;8.77;;;3.60;99.90;;;;;;5010903;28;20205;-85
2023/03/01 10:06:35;;;;;;;15.77;8.80;;;3.90;99.90;;;;;;5008421;28;20588;-82
2023/03/01 10:09:07;;;;;;;16.00;8.03;;;3.80;99.90;;;;;;5000377;28;20319;-84
2023/03/01 10:11:37;;;;;;;16.83;8.10;;;3.90;99.90;;;;;;5016677;28;20223;-81
2023/03/01 10:14:13;;;;;;;12.40;7.03;;;3.90;99.90;;;;;;4990316;28;20230;-83
2023/03/01 10:16:49;;;;;;;15.17;7.87;;;4.10;99.90;;;;;;5014131;28;20207;-86
2023/03/01 10:19:23;;;;;;;12.87;6.90;;;4.10;99.90;;;;;;5001254;28;20295;-82
2023/03/01 10:21:52;;;;;;;13.57;7.33;;;4.00;99.90;;;;;;5001414;28;20686;-83
2023/03/01 10:24:21;;;;;;;15.53;8.17;;;4.20;99.90;;;;;;4998528;28;20250;-84
2023/03/01 10:26:56;;;;;;;12.67;6.33;;;4.50;99.90;;;;;;4988564;28;20213;-82
2023/03/01 10:29:30;;;;;;;13.33;7.67;;;4.40;99.90;;;;;;5001226;28;20211;-84
2023/03/01 10:31:57;;;;;;;16.53;8.50;;;4.60;99.90;;;;;;4984862;28;20239;-86
2023/03/01 10:34:29;;;;;;;14.23;7.60;;;4.50;99.90;;;;;;4981346;28;20241;-84
2023/03/01 10:37:02;;;;;;;13.87;7.13;;;4.60;99.90;;;;;;4984043;28;20644;-82
2023/03/01 10:39:29;;;;;;;13.43;7.10;;;4.60;99.90;;;;;;4997431;28;20209;-82
2023/03/01 10:41:59;;;;;;;13.33;7.93;;;4.80;99.90;;;;;;5002329;28;20581;-83
2023/03/01 10:44:39;;;;;;;11.20;5.70;;;4.90;99.90;;;;;;5002231;28;20193;-83
2023/03/01 10:47:12;;;;;;;15.00;7.07;;;4.70;99.90;;;;;;4991896;28;20685;-82
2023/03/01 10:49:39;;;;;;;13.33;6.87;;;4.80;99.90;;;;;;4990956;28;20205;-82
2023/03/01 10:52:20;;;;;;;13.47;7.17;;;4.70;99.90;;;;;;4993300;28;20205;-83
2023/03/01 10:54:54;;;;;;;12.60;6.80;;;4.80;99.90;;;;;;4998439;28;20603;-82
2023/03/01 10:57:30;;;;;;;13.93;7.47;;;4.80;99.90;;;;;;5000930;28;20225;-84
2023/03/01 11:00:25;;;;;;;12.30;6.93;;;4.80;99.90;;;;;;5000787;28;20295;-83
2023/03/01 11:03:10;;;;;;;14.60;7.63;;;5.00;99.90;;;;;;5008071;28;20215;-86
2023/03/01 11:05:36;;;;;;;11.30;6.30;;;5.10;99.90;;;;;;5009060;28;20268;-84
2023/03/01 11:08:05;;;;;;;13.50;6.83;;;5.00;99.90;;;;;;5000317;28;20239;-83
2023/03/01 11:10:33;;;;;;;13.83;6.70;;;5.10;99.90;;;;;;5009638;28;20216;-82
2023/03/01 11:13:09;;;;;;;12.17;6.40;;;5.20;99.90;;;;;;5010058;28;20199;-84
2023/03/01 11:15:36;;;;;;;12.47;6.93;;;5.30;99.90;;;;;;5001551;28;20231;-84
2023/03/01 11:18:04;;;;;;;12.00;6.73;;;5.30;99.90;;;;;;4994258;28;20251;-83
2023/03/01 11:20:34;;;;;;;10.93;6.30;;;5.40;99.90;;;;;;5004958;28;20205;-83
2023/03/01 11:23:05;;;;;;;11.97;6.20;;;5.10;99.90;;;;;;4993046;28;20264;-83
2023/03/01 11:25:37;;;;;;;11.73;5.40;;;5.30;99.90;;;;;;5001437;28;20288;-85
2023/03/01 11:28:06;;;;;;;11.97;6.17;;;5.40;99.90;;;;;;5000517;28;20639;-84
2023/03/01 11:30:39;;;;;;;12.33;6.63;;;5.40;99.90;;;;;;4993484;28;20201;-86
2023/03/01 11:33:17;;;;;;;10.70;5.57;;;5.10;99.90;;;;;;4985074;28;20206;-82
2023/03/01 11:35:50;;;;;;;11.73;5.93;;;5.10;99.90;;;;;;4990066;28;20225;-87
2023/03/01 11:38:23;;;;;;;12.20;6.00;;;5.30;99.90;;;;;;4993475;28;20316;-85
2023/03/01 11:40:58;;;;;;;11.03;5.80;;;5.40;99.90;;;;;;4995011;28;20232;-87
2023/03/01 11:43:30;;;;;;;12.43;6.57;;;5.40;99.90;;;;;;4999572;28;20208;-87
2023/03/01 11:46:41;;;;;;;12.40;6.27;;;5.40;99.90;;;;;;5001750;28;20197;-87
2023/03/01 11:49:40;;;;;;;12.20;5.90;;;5.70;99.90;;;;;;4956723;28;20217;-84
2023/03/01 11:52:17;;;;;;;12.27;6.07;;;5.60;99.90;;;;;;4944785;28;20203;-86
2023/03/01 11:54:58;;;;;;;9.13;4.83;;;5.80;99.90;;;;;;5014947;28;20226;-82
2023/03/01 11:57:42;;;;;;;8.60;5.37;;;5.50;99.90;;;;;;5014713;28;20244;-83
2023/03/01 12:00:24;;;;;;;13.50;6.10;;;5.50;99.90;;;;;;5004543;28;20575;-87
2023/03/01 12:03:24;;;;;;;10.63;5.60;;;5.80;99.90;;;;;;5008212;28;20203;-85
2023/03/01 12:06:27;;;;;;;13.60;6.70;;;5.90;99.90;;;;;;4999815;28;20199;-83
2023/03/01 12:09:07;;;;;;;13.47;6.30;;;6.10;99.90;;;;;;4941171;28;20237;-83
2023/03/01 12:11:48;;;;;;;11.00;5.80;;;5.90;99.90;;;;;;5001947;28;21667;-86
2023/03/01 12:14:41;;;;;;;11.70;5.60;;;6.10;99.90;;;;;;4996960;28;20205;-82
2023/03/01 12:17:37;;;;;;;10.17;5.47;;;5.90;99.90;;;;;;4996572;28;20311;-88
2023/03/01 12:20:15;;;;;;;9.13;4.63;;;6.20;99.90;;;;;;4990785;28;20284;-83
2023/03/01 12:22:54;;;;;;;10.37;5.50;;;6.10;99.90;;;;;;4994224;28;20208;-87
2023/03/01 12:25:29;;;;;;;9.40;5.23;;;5.90;36.10;;;;;;5003283;28;20196;-82
2023/03/01 12:28:26;;;;;;;12.13;5.67;;;6.10;99.90;;;;;;5000564;28;20294;-85
2023/03/01 12:31:12;;;;;;;11.67;5.40;;;6.00;98.00;;;;;;4998841;28;20201;-87
2023/03/01 12:33:50;;;;;;;10.80;5.17;;;6.00;95.60;;;;;;5001327;28;20197;-85
2023/03/01 12:36:44;;;;;;;10.63;5.10;;;6.10;74.60;;;;;;5002340;28;20225;-86
2023/03/01 12:39:27;;;;;;;9.93;5.47;;;6.10;98.00;;;;;;5001121;28;20209;-84
2023/03/01 12:42:05;;;;;;;10.43;5.23;;;6.60;99.90;;;;;;5002372;28;20227;-83
2023/03/01 12:44:44;;;;;;;9.30;5.27;;;6.20;78.30;;;;;;5002443;28;20209;-85
2023/03/01 12:47:26;;;;;;;10.60;4.97;;;6.20;37.80;;;;;;4996451;28;20241;-85
2023/03/01 12:49:56;;;;;;;9.67;4.70;;;6.30;56.00;;;;;;5002634;28;20243;-81
2023/03/01 12:52:30;;;;;;;9.70;5.03;;;6.30;28.50;;;;;;4999271;28;20209;-81